Time;durP1;ratioP1;P1;durP2;ratioP2;P2;SDS_P1;SDS_P2;PMS_P1;PMS_P2;Temp;Humidity;BMP_temperature;BMP_pressure;BME280_temperature;BME280_humidity;BME280_pressure;Samples;Min_cycle;Max_cycle;Signal;HPM_P1;HPM_P2
2023/10/30 00:00:56;;;;;;;;;;;10.10;99.90;;;;;;5056953;28;20040;-64
2023/10/30 00:03:22;;;;;;;8.38;1.65;;;10.20;99.90;;;;;;5056874;28;19920;-64
2023/10/30 00:05:50;;;;;;;;;;;10.20;99.90;;;;;;5060162;28;20166;-63
2023/10/30 00:08:16;;;;;;;12.95;1.50;;;10.20;99.90;;;;;;5055946;28;20551;-64
2023/10/30 00:10:42;;;;;;;;;;;10.20;99.90;;;;;;5052224;28;20037;-64
2023/10/30 00:13:08;;;;;;;11.70;1.15;;;10.20;99.90;;;;;;5059321;28;19923;-64
2023/10/30 00:15:34;;;;;;;8.13;1.33;;;10.20;99.90;;;;;;5059876;28;20040;-64
2023/10/30 00:17:59;;;;;;;8.88;1.23;;;10.20;99.90;;;;;;5052798;28;20049;-63
2023/10/30 00:20:25;;;;;;;8.27;1.75;;;10.20;99.90;;;;;;5041047;28;20497;-63
2023/10/30 00:22:51;;;;;;;;;;;10.20;99.90;;;;;;5046292;28;20036;-63
2023/10/30 00:25:16;;;;;;;12.98;2.35;;;10.20;99.90;;;;;;5040865;28;19928;-63
2023/10/30 00:27:42;;;;;;;7.55;1.17;;;10.20;99.90;;;;;;5046627;28;20187;-63
2023/10/30 00:30:09;;;;;;;6.63;1.23;;;10.20;99.90;;;;;;5044776;28;20045;-62
2023/10/30 00:32:35;;;;;;;15.85;1.90;;;10.20;99.90;;;;;;5041796;28;20034;-63
2023/10/30 00:35:00;;;;;;;;;;;10.20;99.90;;;;;;5046434;28;20119;-63
2023/10/30 00:37:26;;;;;;;6.25;1.08;;;10.20;99.90;;;;;;5047397;28;19960;-64
2023/10/30 00:39:51;;;;;;;;;;;10.20;99.90;;;;;;5043226;28;20116;-64
2023/10/30 00:42:17;;;;;;;9.40;1.27;;;10.20;99.90;;;;;;5040533;28;19923;-64
2023/10/30 00:44:42;;;;;;;;;;;10.10;99.90;;;;;;5048811;28;20044;-64
2023/10/30 00:47:08;;;;;;;10.60;1.60;;;10.10;99.90;;;;;;5045149;28;19925;-64
2023/10/30 00:49:34;;;;;;;7.55;1.50;;;10.10;99.90;;;;;;5043239;28;20575;-64
2023/10/30 00:51:59;;;;;;;7.40;1.33;;;10.10;99.90;;;;;;5044303;28;20065;-64
2023/10/30 00:54:25;;;;;;;;;;;10.10;99.90;;;;;;5042687;28;20083;-64
2023/10/30 00:56:50;;;;;;;10.38;1.65;;;10.10;99.90;;;;;;5043934;28;19988;-64
2023/10/30 00:59:16;;;;;;;;;;;10.00;99.90;;;;;;5047981;28;20098;-65
2023/10/30 01:01:41;;;;;;;7.07;1.70;;;10.00;99.90;;;;;;5041575;28;19948;-64
2023/10/30 01:04:07;;;;;;;;;;;10.00;99.90;;;;;;5045825;28;20393;-64
2023/10/30 01:06:33;;;;;;;9.50;1.88;;;10.00;99.90;;;;;;5043184;28;20015;-64
2023/10/30 01:08:59;;;;;;;5.45;1.35;;;10.10;99.90;;;;;;5046861;28;20040;-64
2023/10/30 01:11:25;;;;;;;;;;;10.00;99.90;;;;;;5038732;28;20037;-64
2023/10/30 01:13:50;;;;;;;13.95;2.00;;;10.00;99.90;;;;;;5046186;28;19925;-64
2023/10/30 01:16:16;;;;;;;7.38;1.42;;;10.00;99.90;;;;;;5042053;28;20040;-64
2023/10/30 01:18:41;;;;;;;;;;;10.00;99.90;;;;;;5048987;28;20111;-64
2023/10/30 01:21:12;;;;;;;10.35;1.40;;;10.00;99.90;;;;;;5042484;28;20000;-64
2023/10/30 01:23:38;;;;;;;7.40;1.42;;;10.00;99.90;;;;;;5045655;28;20141;-63
2023/10/30 01:26:04;;;;;;;;;;;10.00;99.90;;;;;;5046680;28;20488;-62
2023/10/30 01:28:30;;;;;;;5.75;1.27;;;10.00;99.90;;;;;;5042408;28;19916;-63
2023/10/30 01:30:55;;;;;;;;;;;10.10;99.90;;;;;;5044381;28;20048;-64
2023/10/30 01:33:23;;;;;;;7.93;1.38;;;10.00;99.90;;;;;;5043935;28;20007;-63
2023/10/30 01:35:49;;;;;;;8.90;1.38;;;10.10;99.90;;;;;;5040855;28;20045;-62
2023/10/30 01:38:14;;;;;;;;;;;10.00;99.90;;;;;;5045062;28;20194;-62
2023/10/30 01:40:51;;;;;;;8.25;1.75;;;10.00;99.90;;;;;;5042073;28;20525;-63
2023/10/30 01:43:27;;;;;;;9.48;1.88;;;10.00;99.90;;;;;;5044293;28;20044;-62
2023/10/30 01:45:52;;;;;;;10.15;2.00;;;10.00;99.90;;;;;;5044425;28;20076;-63
2023/10/30 01:48:18;;;;;;;12.88;1.77;;;10.00;99.90;;;;;;5041407;28;20088;-63
2023/10/30 01:50:48;;;;;;;7.43;1.48;;;10.00;99.90;;;;;;5036839;28;20029;-63
2023/10/30 01:53:15;;;;;;;7.00;1.67;;;10.00;99.90;;;;;;5043641;28;20035;-63
2023/10/30 01:55:41;;;;;;;12.40;1.67;;;10.00;99.90;;;;;;5039895;28;20548;-63
2023/10/30 01:58:08;;;;;;;13.82;1.90;;;10.00;99.90;;;;;;5045231;28;20041;-63
2023/10/30 02:00:34;;;;;;;7.78;1.58;;;10.00;99.90;;;;;;5037774;28;20047;-63
2023/10/30 02:02:59;;;;;;;;;;;10.00;99.90;;;;;;5045944;28;20037;-63
2023/10/30 02:05:25;;;;;;;11.82;1.63;;;10.00;99.90;;;;;;5039471;28;20317;-62
2023/10/30 02:07:51;;;;;;;14.18;2.30;;;10.10;99.90;;;;;;5043531;28;20100;-63
2023/10/30 02:10:16;;;;;;;;;;;10.10;99.90;;;;;;5047446;28;20052;-62
2023/10/30 02:12:42;;;;;;;16.42;1.70;;;10.10;99.90;;;;;;5043951;28;20442;-63
2023/10/30 02:15:08;;;;;;;;;;;10.10;99.90;;;;;;5046477;28;20605;-62
2023/10/30 02:17:34;;;;;;;13.25;1.75;;;10.10;99.90;;;;;;5042554;28;19954;-62
2023/10/30 02:20:00;;;;;;;;;;;10.10;99.90;;;;;;5042995;28;20033;-61
2023/10/30 02:22:25;;;;;;;7.70;1.45;;;10.10;99.90;;;;;;5044357;28;19920;-61
2023/10/30 02:24:51;;;;;;;;;;;10.10;99.90;;;;;;5044064;28;20029;-59
2023/10/30 02:27:17;;;;;;;7.15;1.17;;;10.10;99.90;;;;;;5043989;28;19920;-62
2023/10/30 02:29:43;;;;;;;9.68;1.50;;;10.10;99.90;;;;;;5041996;28;20044;-62
2023/10/30 02:32:09;;;;;;;7.53;1.73;;;10.10;99.90;;;;;;5040579;28;20037;-62
2023/10/30 02:34:34;;;;;;;;;;;10.10;99.90;;;;;;5046850;28;20051;-62
2023/10/30 02:37:02;;;;;;;10.68;1.52;;;10.10;99.90;;;;;;5038753;28;19924;-62
2023/10/30 02:39:32;;;;;;;7.13;1.40;;;10.10;99.90;;;;;;5041160;28;20048;-63
2023/10/30 02:41:59;;;;;;;8.77;1.35;;;10.10;99.90;;;;;;5043152;28;20040;-63
2023/10/30 02:44:24;;;;;;;7.28;1.67;;;10.10;99.90;;;;;;5041381;28;20049;-63
2023/10/30 02:46:50;;;;;;;;;;;10.10;99.90;;;;;;5038856;28;20041;-62
2023/10/30 02:49:16;;;;;;;12.75;2.53;;;10.10;99.90;;;;;;5044401;28;20023;-63
2023/10/30 02:51:41;;;;;;;;;;;10.10;99.90;;;;;;5042812;28;20040;-63
2023/10/30 02:54:07;;;;;;;12.85;1.63;;;10.10;99.90;;;;;;5042527;28;20380;-61
2023/10/30 02:56:32;;;;;;;12.35;1.80;;;10.10;99.90;;;;;;5042503;28;20089;-62
2023/10/30 02:58:59;;;;;;;7.75;1.52;;;10.10;99.90;;;;;;5045876;28;20114;-61
2023/10/30 03:01:26;;;;;;;7.45;1.27;;;10.10;99.90;;;;;;5040453;28;20044;-62
2023/10/30 03:03:51;;;;;;;11.48;1.67;;;10.20;99.90;;;;;;5042744;28;20444;-62
2023/10/30 03:06:17;;;;;;;;;;;10.20;99.90;;;;;;5044283;28;20037;-62
2023/10/30 03:08:43;;;;;;;8.65;1.30;;;10.20;99.90;;;;;;5044375;28;19916;-62
2023/10/30 03:11:08;;;;;;;;;;;10.20;99.90;;;;;;5040466;28;20044;-62
2023/10/30 03:13:34;;;;;;;9.88;2.33;;;10.10;99.90;;;;;;5043642;28;20388;-62
2023/10/30 03:16:00;;;;;;;12.50;1.85;;;10.20;99.90;;;;;;5043040;28;20037;-62
2023/10/30 03:18:25;;;;;;;;;;;10.20;99.90;;;;;;5044811;28;20049;-63
2023/10/30 03:20:51;;;;;;;8.80;1.77;;;10.20;99.90;;;;;;5040511;28;20412;-62
2023/10/30 03:23:16;;;;;;;7.80;1.40;;;10.20;99.90;;;;;;5046116;28;20051;-63
2023/10/30 03:25:42;;;;;;;9.05;1.40;;;10.20;99.90;;;;;;5045735;28;20041;-63
2023/10/30 03:28:08;;;;;;;;;;;10.20;99.90;;;;;;5045038;28;20033;-62
2023/10/30 03:30:35;;;;;;;9.93;1.80;;;10.20;99.90;;;;;;5039529;28;19925;-63
2023/10/30 03:33:02;;;;;;;14.05;2.45;;;10.20;99.90;;;;;;5040988;28;20037;-62
2023/10/30 03:35:28;;;;;;;10.20;1.58;;;10.20;99.90;;;;;;5039865;28;20498;-62
2023/10/30 03:37:53;;;;;;;;;;;10.20;99.90;;;;;;5045066;28;20128;-62
2023/10/30 03:40:19;;;;;;;10.98;1.60;;;10.20;99.90;;;;;;5042669;28;20458;-62
2023/10/30 03:42:44;;;;;;;10.13;1.30;;;10.10;99.90;;;;;;5043075;28;20072;-62
2023/10/30 03:45:10;;;;;;;;;;;10.10;99.90;;;;;;5043039;28;20124;-63
2023/10/30 03:47:35;;;;;;;10.05;1.27;;;10.20;99.90;;;;;;5036192;28;19956;-62
2023/10/30 03:50:01;;;;;;;11.13;1.70;;;10.20;99.90;;;;;;5039923;28;20516;-63
2023/10/30 03:52:26;;;;;;;9.35;1.38;;;10.10;99.90;;;;;;5040608;28;20127;-62
2023/10/30 03:54:52;;;;;;;8.02;1.63;;;10.10;99.90;;;;;;5047828;28;20033;-62
2023/10/30 03:57:18;;;;;;;;;;;10.10;99.90;;;;;;5048446;28;20063;-63
2023/10/30 03:59:43;;;;;;;12.50;1.98;;;10.10;99.90;;;;;;5048351;28;19917;-64
2023/10/30 04:02:09;;;;;;;;;;;10.10;99.90;;;;;;5044598;28;20396;-64
2023/10/30 04:04:36;;;;;;;14.40;2.08;;;10.10;99.90;;;;;;5047093;28;20285;-63
2023/10/30 04:07:02;;;;;;;11.57;1.55;;;10.10;99.90;;;;;;5041846;28;20447;-63
2023/10/30 04:09:29;;;;;;;10.98;2.20;;;10.10;99.90;;;;;;5048318;28;20144;-64
2023/10/30 04:11:54;;;;;;;6.90;1.27;;;10.10;99.90;;;;;;5044985;28;20067;-63
2023/10/30 04:14:20;;;;;;;;;;;10.10;99.90;;;;;;5049111;28;20075;-64
2023/10/30 04:16:45;;;;;;;12.75;1.63;;;10.10;99.90;;;;;;5043857;28;20015;-64
2023/10/30 04:19:11;;;;;;;10.27;2.17;;;10.10;99.90;;;;;;5048421;28;20041;-64
2023/10/30 04:21:37;;;;;;;;;;;10.10;99.90;;;;;;5042730;28;20044;-64
2023/10/30 04:24:03;;;;;;;6.32;1.02;;;10.10;99.90;;;;;;5028201;28;20054;-62
2023/10/30 04:26:28;;;;;;;9.52;1.50;;;10.10;99.90;;;;;;5042237;28;20512;-63
2023/10/30 04:28:54;;;;;;;;;;;10.10;99.90;;;;;;5048659;28;20048;-63
2023/10/30 04:31:19;;;;;;;7.63;1.70;;;10.10;99.90;;;;;;5042082;28;19920;-63
2023/10/30 04:33:45;;;;;;;;;;;10.10;99.90;;;;;;5047349;28;20124;-64
2023/10/30 04:36:10;;;;;;;18.60;2.08;;;10.00;99.90;;;;;;5043863;28;19916;-63
2023/10/30 04:38:36;;;;;;;;;;;10.00;99.90;;;;;;5046722;28;20041;-63
2023/10/30 04:41:04;;;;;;;8.35;1.70;;;10.00;99.90;;;;;;5042492;28;19947;-63
2023/10/30 04:43:33;;;;;;;13.45;1.88;;;10.00;99.90;;;;;;5049264;28;20111;-63
2023/10/30 04:45:59;;;;;;;11.98;1.73;;;10.00;99.90;;;;;;5044851;28;20435;-63
2023/10/30 04:48:24;;;;;;;;;;;10.00;99.90;;;;;;5049836;28;20127;-63
2023/10/30 04:50:50;;;;;;;11.15;1.60;;;10.00;99.90;;;;;;5047045;28;19925;-64
2023/10/30 04:53:16;;;;;;;8.85;1.88;;;10.00;99.90;;;;;;5049210;28;20039;-63
2023/10/30 04:55:41;;;;;;;;;;;10.00;99.90;;;;;;5053960;28;20058;-64
2023/10/30 04:58:07;;;;;;;8.70;1.40;;;10.00;99.90;;;;;;5053413;28;19928;-64
2023/10/30 05:00:32;;;;;;;13.63;1.50;;;10.00;99.90;;;;;;5045884;28;20100;-63
2023/10/30 05:02:58;;;;;;;;;;;10.00;99.90;;;;;;5051309;28;20037;-64
2023/10/30 05:05:24;;;;;;;8.27;1.60;;;10.00;99.90;;;;;;5046063;28;20007;-63
2023/10/30 05:07:49;;;;;;;;;;;10.00;99.90;;;;;;5047859;28;20041;-65
2023/10/30 05:10:15;;;;;;;14.07;1.98;;;10.00;99.90;;;;;;5045624;28;19946;-63
2023/10/30 05:12:40;;;;;;;15.27;1.98;;;10.00;99.90;;;;;;5042579;28;20033;-63
2023/10/30 05:15:08;;;;;;;;;;;10.00;99.90;;;;;;5045815;28;20063;-63
2023/10/30 05:17:37;;;;;;;;;;;10.00;99.90;;;;;;5047858;28;20307;-64
2023/10/30 05:20:04;;;;;;;11.07;1.50;;;10.00;99.90;;;;;;5046701;28;19944;-61
2023/10/30 05:22:29;;;;;;;6.85;1.77;;;10.00;99.90;;;;;;5043530;28;20440;-63
2023/10/30 05:24:55;;;;;;;;;;;10.00;99.90;;;;;;5048053;28;20045;-64
2023/10/30 05:27:21;;;;;;;6.63;1.70;;;10.00;99.90;;;;;;5036963;28;19924;-63
2023/10/30 05:29:46;;;;;;;14.73;2.58;;;9.90;99.90;;;;;;5052627;28;20040;-64
2023/10/30 05:32:12;;;;;;;;;;;9.90;99.90;;;;;;5046671;28;20041;-64
2023/10/30 05:34:37;;;;;;;8.13;1.30;;;10.00;99.90;;;;;;5051806;28;19920;-64
2023/10/30 05:37:06;;;;;;;;;;;10.00;99.90;;;;;;5045431;28;20535;-64
2023/10/30 05:39:32;;;;;;;9.77;1.67;;;10.00;99.90;;;;;;5043067;28;19920;-64
2023/10/30 05:41:58;;;;;;;;;;;10.00;99.90;;;;;;5048107;28;20033;-64
2023/10/30 05:44:24;;;;;;;7.28;1.48;;;10.00;99.90;;;;;;5048482;28;19923;-63
2023/10/30 05:46:50;;;;;;;;;;;10.00;99.90;;;;;;5044602;28;20049;-62
2023/10/30 05:49:15;;;;;;;15.65;2.40;;;9.90;99.90;;;;;;5044806;28;19956;-63
2023/10/30 05:51:41;;;;;;;19.13;2.33;;;10.00;99.90;;;;;;5041383;28;20566;-63
2023/10/30 05:54:06;;;;;;;10.80;1.95;;;10.00;99.90;;;;;;5047498;28;20041;-62
2023/10/30 05:56:32;;;;;;;;;;;10.00;99.90;;;;;;5040525;28;20094;-64
2023/10/30 05:58:57;;;;;;;10.73;1.67;;;10.00;99.90;;;;;;5045098;28;19951;-66
2023/10/30 06:01:23;;;;;;;11.48;1.50;;;10.00;99.90;;;;;;5042292;28;20041;-64
2023/10/30 06:03:48;;;;;;;;;;;10.00;99.90;;;;;;5042828;28;20041;-64
2023/10/30 06:06:14;;;;;;;9.82;1.95;;;10.00;99.90;;;;;;5042950;28;20407;-64
2023/10/30 06:08:39;;;;;;;;;;;10.00;99.90;;;;;;5043475;28;20501;-64
2023/10/30 06:11:05;;;;;;;12.48;1.95;;;10.00;99.90;;;;;;5043633;28;20327;-63
2023/10/30 06:13:31;;;;;;;;;;;10.00;99.90;;;;;;5046444;28;20098;-64
2023/10/30 06:15:56;;;;;;;11.73;1.88;;;10.00;99.90;;;;;;5039917;28;19917;-64
2023/10/30 06:18:23;;;;;;;;;;;10.00;99.90;;;;;;5048008;28;20040;-63
2023/10/30 06:20:48;;;;;;;8.80;2.35;;;10.00;99.90;;;;;;5040208;28;20399;-64
2023/10/30 06:23:14;;;;;;;;;;;10.00;99.90;;;;;;5042464;28;20033;-65
2023/10/30 06:25:39;;;;;;;12.30;2.58;;;10.00;99.90;;;;;;5043951;28;20293;-63
2023/10/30 06:28:06;;;;;;;12.48;2.38;;;10.00;99.90;;;;;;5045557;28;20038;-63
2023/10/30 06:30:32;;;;;;;12.85;2.03;;;10.00;99.90;;;;;;5041848;28;20041;-63
2023/10/30 06:32:58;;;;;;;;;;;10.00;99.90;;;;;;5046711;28;20040;-64
2023/10/30 06:35:23;;;;;;;13.88;1.77;;;10.00;99.90;;;;;;5041671;28;19939;-61
2023/10/30 06:37:50;;;;;;;;;;;10.00;99.90;;;;;;5045509;28;20041;-62
2023/10/30 06:40:15;;;;;;;11.77;2.40;;;10.00;99.90;;;;;;5044647;28;19921;-62
2023/10/30 06:42:41;;;;;;;;;;;10.10;99.90;;;;;;5044118;28;20070;-62
2023/10/30 06:45:08;;;;;;;9.68;1.80;;;10.10;99.90;;;;;;5043946;28;19928;-64
2023/10/30 06:47:33;;;;;;;12.70;1.88;;;10.10;99.90;;;;;;5043459;28;20106;-63
2023/10/30 06:49:59;;;;;;;;;;;10.10;99.90;;;;;;5045055;28;20048;-63
2023/10/30 06:52:25;;;;;;;5.63;2.35;;;10.10;99.90;;;;;;5046761;28;19990;-62
2023/10/30 06:54:50;;;;;;;;;;;10.10;99.90;;;;;;5046351;28;20566;-61
2023/10/30 06:57:16;;;;;;;7.50;1.38;;;10.10;99.90;;;;;;5041157;28;19948;-62
2023/10/30 06:59:41;;;;;;;;;;;10.10;99.90;;;;;;5046733;28;20033;-62
2023/10/30 07:02:07;;;;;;;10.35;1.48;;;10.20;99.90;;;;;;5039536;28;19966;-62
2023/10/30 07:04:32;;;;;;;;;;;10.20;99.90;;;;;;5045972;28;20052;-61
2023/10/30 07:06:58;;;;;;;11.40;1.50;;;10.20;99.90;;;;;;5037901;28;19924;-64
2023/10/30 07:09:23;;;;;;;;;;;10.20;99.90;;;;;;5045262;28;20052;-63
2023/10/30 07:11:49;;;;;;;11.45;1.70;;;10.20;99.90;;;;;;5039930;28;19924;-63
2023/10/30 07:14:15;;;;;;;;;;;10.20;99.90;;;;;;5046238;28;20454;-61
2023/10/30 07:16:40;;;;;;;6.60;1.20;;;10.20;99.90;;;;;;5051459;28;20387;-63
2023/10/30 07:19:06;;;;;;;;;;;10.20;99.90;;;;;;5046384;28;20421;-62
2023/10/30 07:21:32;;;;;;;8.88;1.60;;;10.20;99.90;;;;;;5039547;28;19917;-62
2023/10/30 07:23:57;;;;;;;;;;;10.30;99.90;;;;;;5040298;28;20094;-62
2023/10/30 07:26:23;;;;;;;10.00;1.77;;;10.30;99.90;;;;;;5041392;28;19925;-63
2023/10/30 07:28:50;;;;;;;9.18;1.77;;;10.30;99.90;;;;;;5049005;28;20064;-64
2023/10/30 07:31:18;;;;;;;12.57;1.63;;;10.30;99.90;;;;;;5043367;28;20129;-62
2023/10/30 07:33:44;;;;;;;10.13;1.30;;;10.40;99.90;;;;;;5043343;28;20041;-65
2023/10/30 07:36:09;;;;;;;;;;;10.40;99.90;;;;;;5049748;28;20434;-64
2023/10/30 07:38:36;;;;;;;18.40;1.92;;;10.40;99.90;;;;;;5045100;28;19917;-64
2023/10/30 07:41:02;;;;;;;6.40;1.10;;;10.40;99.90;;;;;;5039033;28;20115;-62
2023/10/30 07:43:28;;;;;;;6.55;1.40;;;10.40;99.90;;;;;;5047937;28;20040;-64
2023/10/30 07:45:54;;;;;;;6.30;1.40;;;10.50;99.90;;;;;;5041035;28;20047;-63
2023/10/30 07:48:20;;;;;;;;;;;10.50;99.90;;;;;;5049441;28;20045;-63
2023/10/30 07:50:47;;;;;;;6.47;1.33;;;10.50;99.90;;;;;;5041485;28;19928;-63
2023/10/30 07:53:14;;;;;;;9.65;1.38;;;10.50;99.90;;;;;;5051113;28;20041;-63
2023/10/30 07:55:40;;;;;;;6.25;1.67;;;10.50;99.90;;;;;;5045739;28;20053;-63
2023/10/30 07:58:06;;;;;;;;;;;10.50;99.90;;;;;;5048148;28;20643;-64
2023/10/30 08:00:32;;;;;;;8.38;1.52;;;10.50;99.90;;;;;;5042100;28;19916;-64
2023/10/30 08:03:02;;;;;;;6.25;1.35;;;10.50;99.90;;;;;;5039232;28;20051;-62
2023/10/30 08:05:28;;;;;;;9.93;1.10;;;10.50;99.90;;;;;;5045728;28;20049;-64
2023/10/30 08:07:53;;;;;;;;;;;10.50;99.90;;;;;;5046576;28;20381;-63
2023/10/30 08:10:19;;;;;;;8.95;0.98;;;10.50;99.90;;;;;;5045085;28;20327;-64
2023/10/30 08:12:44;;;;;;;;;;;10.60;99.90;;;;;;5049601;28;20041;-65
2023/10/30 08:15:10;;;;;;;9.40;1.25;;;10.50;99.90;;;;;;5039544;28;19982;-65
2023/10/30 08:17:36;;;;;;;8.27;1.52;;;10.60;99.90;;;;;;5045247;28;20041;-65
2023/10/30 08:20:03;;;;;;;8.05;1.70;;;10.60;99.90;;;;;;5044611;28;20040;-65
2023/10/30 08:22:29;;;;;;;6.65;1.30;;;10.60;99.90;;;;;;5050310;28;20040;-66
2023/10/30 08:24:55;;;;;;;;;;;10.60;99.90;;;;;;5047046;28;20037;-63
2023/10/30 08:27:20;;;;;;;6.75;1.33;;;10.60;99.90;;;;;;5046156;28;19921;-61
2023/10/30 08:29:46;;;;;;;;;;;10.60;99.90;;;;;;5043330;28;20037;-64
2023/10/30 08:32:13;;;;;;;2.20;0.75;;;10.60;99.90;;;;;;5049552;28;19916;-64
2023/10/30 08:34:39;;;;;;;5.18;0.70;;;10.70;99.90;;;;;;5040159;28;20079;-63
2023/10/30 08:37:04;;;;;;;;;;;10.70;99.90;;;;;;5048842;28;20060;-64
2023/10/30 08:39:30;;;;;;;5.70;1.38;;;10.70;99.90;;;;;;5039674;28;19920;-64
2023/10/30 08:41:55;;;;;;;7.95;1.30;;;10.60;99.90;;;;;;5041228;28;20135;-61
2023/10/30 08:44:21;;;;;;;;;;;10.60;99.90;;;;;;5041852;28;20037;-64
2023/10/30 08:46:46;;;;;;;2.80;0.75;;;10.60;99.90;;;;;;5049257;28;19925;-61
2023/10/30 08:49:12;;;;;;;;;;;10.60;99.90;;;;;;5040941;28;20044;-64
2023/10/30 08:51:41;;;;;;;4.85;0.77;;;10.70;99.90;;;;;;5046293;28;19924;-64
2023/10/30 08:54:07;;;;;;;4.88;1.08;;;10.70;99.90;;;;;;5043065;28;20052;-63
2023/10/30 08:56:32;;;;;;;;;;;10.60;99.90;;;;;;5049889;28;20056;-64
2023/10/30 08:58:58;;;;;;;5.82;0.93;;;10.70;99.90;;;;;;5039363;28;19920;-63
2023/10/30 09:01:24;;;;;;;;;;;10.70;99.90;;;;;;5048460;28;20052;-64
2023/10/30 09:03:50;;;;;;;3.75;0.70;;;10.70;99.90;;;;;;5043831;28;19921;-63
2023/10/30 09:06:15;;;;;;;;;;;10.80;99.90;;;;;;5043484;28;20056;-62
2023/10/30 09:08:41;;;;;;;1.67;0.55;;;10.80;99.90;;;;;;5048043;28;19925;-64
2023/10/30 09:11:06;;;;;;;;;;;10.80;99.90;;;;;;5043479;28;20042;-63
2023/10/30 09:13:32;;;;;;;8.35;1.33;;;10.80;99.90;;;;;;5044967;28;19917;-65
2023/10/30 09:15:58;;;;;;;5.75;0.90;;;10.80;99.90;;;;;;5043719;28;20048;-64
2023/10/30 09:18:23;;;;;;;;;;;10.90;99.90;;;;;;5046369;28;20049;-63
2023/10/30 09:20:49;;;;;;;6.68;0.65;;;11.00;99.90;;;;;;5038867;28;19917;-64
2023/10/30 09:23:14;;;;;;;;;;;11.10;99.90;;;;;;5046349;28;20400;-63
2023/10/30 09:25:40;;;;;;;1.38;0.43;;;11.10;99.90;;;;;;5045898;28;19925;-64
2023/10/30 09:28:06;;;;;;;;;;;11.30;99.90;;;;;;5050348;28;20041;-64
2023/10/30 09:30:31;;;;;;;5.28;0.52;;;11.40;99.90;;;;;;5044980;28;20404;-64
2023/10/30 09:32:58;;;;;;;;;;;11.60;99.90;;;;;;5040871;28;20118;-63
2023/10/30 09:35:31;;;;;;;3.08;0.45;;;11.70;99.90;;;;;;5035819;28;19939;-62
2023/10/30 09:37:58;;;;;;;3.35;0.65;;;11.80;99.90;;;;;;5047395;28;20115;-63
2023/10/30 09:40:26;;;;;;;3.22;0.45;;;11.90;99.90;;;;;;5044558;28;20037;-64
2023/10/30 09:42:53;;;;;;;0.90;0.40;;;12.10;99.90;;;;;;5045512;28;20116;-63
2023/10/30 09:45:22;;;;;;;5.32;0.40;;;12.40;99.90;;;;;;5041645;28;20103;-63
2023/10/30 09:47:52;;;;;;;2.50;0.30;;;12.50;99.90;;;;;;5045175;28;20124;-63
2023/10/30 09:50:18;;;;;;;3.17;0.60;;;12.70;99.90;;;;;;5041900;28;20037;-64
2023/10/30 09:52:46;;;;;;;1.65;0.60;;;12.80;99.90;;;;;;5045198;28;20052;-63
2023/10/30 09:55:12;;;;;;;1.50;0.40;;;12.90;99.90;;;;;;5038630;28;20102;-65
2023/10/30 09:57:38;;;;;;;;;;;13.00;99.90;;;;;;5045899;28;20044;-63
2023/10/30 10:00:05;;;;;;;2.53;0.40;;;13.00;99.90;;;;;;5041484;28;19921;-64
2023/10/30 10:02:32;;;;;;;2.95;0.68;;;13.10;99.90;;;;;;5046410;28;20106;-64
2023/10/30 10:04:58;;;;;;;1.10;0.38;;;13.20;99.90;;;;;;5040456;28;20048;-63
2023/10/30 10:07:24;;;;;;;;;;;13.30;99.90;;;;;;5041211;28;20378;-63
2023/10/30 10:09:56;;;;;;;1.02;0.30;;;13.20;99.90;;;;;;5045588;28;20023;-63
2023/10/30 10:12:22;;;;;;;2.35;0.30;;;13.30;99.90;;;;;;5046403;28;20044;-64
2023/10/30 10:14:47;;;;;;;;;;;13.30;99.90;;;;;;5044509;28;20040;-64
2023/10/30 10:17:13;;;;;;;5.07;0.40;;;13.40;99.90;;;;;;5041348;28;19917;-63
2023/10/30 10:19:45;;;;;;;;;;;13.50;99.90;;;;;;5045649;28;20052;-64
2023/10/30 10:22:10;;;;;;;0.70;0.40;;;13.60;99.90;;;;;;5038814;28;20509;-62
2023/10/30 10:24:37;;;;;;;;;;;13.70;99.90;;;;;;5041743;28;20041;-64
2023/10/30 10:27:06;;;;;;;3.20;0.70;;;13.70;99.90;;;;;;5042413;28;19927;-64
2023/10/30 10:29:33;;;;;;;0.98;0.50;;;13.70;99.90;;;;;;5042470;28;20045;-64
2023/10/30 10:31:59;;;;;;;2.10;0.32;;;13.50;99.90;;;;;;5039242;28;20127;-64
2023/10/30 10:34:31;;;;;;;1.75;0.40;;;13.60;99.90;;;;;;5047306;28;20516;-63
2023/10/30 10:36:59;;;;;;;0.82;0.40;;;13.70;99.90;;;;;;5041891;28;20048;-64
2023/10/30 10:39:25;;;;;;;0.93;0.30;;;14.00;99.90;;;;;;5043912;28;20041;-64
2023/10/30 10:41:52;;;;;;;1.17;0.40;;;13.90;99.90;;;;;;5043684;28;20465;-62
2023/10/30 10:44:19;;;;;;;1.88;0.60;;;14.00;99.90;;;;;;5043839;28;20120;-64
2023/10/30 10:46:45;;;;;;;1.70;0.40;;;14.10;99.90;;;;;;5042461;28;20044;-63
2023/10/30 10:49:11;;;;;;;;;;;14.20;99.90;;;;;;5048437;28;20041;-64
2023/10/30 10:51:40;;;;;;;2.33;0.30;;;14.30;99.90;;;;;;5045202;28;20028;-64
2023/10/30 10:54:15;;;;;;;1.17;0.50;;;14.30;99.90;;;;;;5042749;28;20041;-63
2023/10/30 10:56:46;;;;;;;3.45;0.60;;;14.20;99.90;;;;;;5043239;28;20064;-63
2023/10/30 10:59:15;;;;;;;1.17;0.32;;;14.20;99.90;;;;;;5044204;28;20059;-64
2023/10/30 11:01:44;;;;;;;0.30;0.20;;;14.30;99.90;;;;;;5039320;28;20886;-63
2023/10/30 11:04:12;;;;;;;2.88;0.43;;;14.50;99.90;;;;;;5043327;28;20116;-64
2023/10/30 11:06:45;;;;;;;0.70;0.40;;;14.40;99.90;;;;;;5038592;28;20573;-64
2023/10/30 11:09:19;;;;;;;0.30;0.20;;;14.50;99.90;;;;;;5046711;28;20037;-63
2023/10/30 11:11:48;;;;;;;0.80;0.35;;;14.60;99.90;;;;;;5044099;28;20041;-64
2023/10/30 11:14:25;;;;;;;1.83;0.95;;;14.60;99.90;;;;;;5044029;28;20090;-63
2023/10/30 11:16:59;;;;;;;0.47;0.35;;;14.60;99.90;;;;;;5036783;28;20573;-64
2023/10/30 11:19:26;;;;;;;1.25;0.47;;;14.70;99.90;;;;;;5041806;28;20093;-64
2023/10/30 11:21:51;;;;;;;9.95;0.70;;;14.60;99.90;;;;;;5040702;28;20642;-63
2023/10/30 11:24:38;;;;;;;;;;;14.70;99.90;;;;;;5046641;28;20033;-64
2023/10/30 11:27:27;;;;;;;1.10;0.57;;;14.70;99.90;;;;;;5043823;28;19921;-64
2023/10/30 11:30:03;;;;;;;2.72;0.60;;;14.70;99.90;;;;;;5035630;28;20044;-63
2023/10/30 11:32:45;;;;;;;2.63;0.32;;;15.00;99.90;;;;;;5036302;28;20045;-64
2023/10/30 11:35:11;;;;;;;1.50;0.35;;;14.90;99.90;;;;;;5040786;28;20048;-63
2023/10/30 11:37:37;;;;;;;;;;;14.80;99.90;;;;;;5038832;28;20124;-63
2023/10/30 11:40:15;;;;;;;0.65;0.30;;;14.90;99.90;;;;;;5043136;28;19921;-62
2023/10/30 11:42:43;;;;;;;1.35;0.40;;;14.80;99.90;;;;;;5042985;28;20056;-62
2023/10/30 11:45:26;;;;;;;0.80;0.20;;;14.80;99.90;;;;;;5040921;28;20040;-62
2023/10/30 11:48:05;;;;;;;1.83;0.32;;;14.80;99.90;;;;;;5042003;28;20056;-63
2023/10/30 11:50:42;;;;;;;0.55;0.32;;;14.80;99.90;;;;;;5035807;28;20048;-64
2023/10/30 11:53:12;;;;;;;3.42;0.30;;;14.90;99.90;;;;;;5038782;28;20127;-63
2023/10/30 11:55:39;;;;;;;0.57;0.30;;;14.80;99.90;;;;;;5041120;28;20501;-65
2023/10/30 11:58:07;;;;;;;1.90;0.30;;;14.70;99.90;;;;;;5037534;28;20029;-62
2023/10/30 12:00:33;;;;;;;2.60;0.30;;;14.60;99.90;;;;;;5039528;28;20191;-63
2023/10/30 12:02:59;;;;;;;;;;;14.50;99.90;;;;;;5043929;28;20112;-62
2023/10/30 12:05:28;;;;;;;0.43;0.13;;;14.50;99.90;;;;;;5045437;28;19996;-64
2023/10/30 12:07:54;;;;;;;4.05;0.40;;;14.50;99.90;;;;;;5042776;28;20528;-64
2023/10/30 12:10:20;;;;;;;1.38;0.30;;;14.50;99.90;;;;;;5041022;28;20048;-63
2023/10/30 12:12:46;;;;;;;;;;;14.50;99.90;;;;;;5044783;28;20044;-64
2023/10/30 12:15:12;;;;;;;1.30;0.30;;;14.50;99.90;;;;;;5046532;28;19921;-63
2023/10/30 12:17:40;;;;;;;1.38;0.40;;;14.50;99.90;;;;;;5046119;28;20053;-63
2023/10/30 12:20:06;;;;;;;2.15;0.30;;;14.30;99.90;;;;;;5044732;28;20720;-63
2023/10/30 12:22:37;;;;;;;1.10;0.32;;;14.20;99.90;;;;;;5048771;28;20048;-63
2023/10/30 12:25:04;;;;;;;1.67;0.38;;;14.20;99.90;;;;;;5047424;28;20493;-64
2023/10/30 12:27:30;;;;;;;3.33;0.40;;;14.30;99.90;;;;;;5048348;28;20059;-63
2023/10/30 12:29:56;;;;;;;;;;;14.30;99.90;;;;;;5047920;28;20511;-64
2023/10/30 12:32:22;;;;;;;0.30;0.20;;;14.40;99.90;;;;;;5045647;28;20031;-63
2023/10/30 12:34:47;;;;;;;;;;;14.20;99.90;;;;;;5045625;28;20116;-63
2023/10/30 12:37:26;;;;;;;0.95;0.32;;;14.30;99.90;;;;;;5047178;28;20442;-63
2023/10/30 12:40:05;;;;;;;1.00;0.30;;;14.40;99.90;;;;;;5047935;28;20036;-61
2023/10/30 12:42:38;;;;;;;0.45;0.28;;;14.40;99.90;;;;;;5046204;28;20051;-63
2023/10/30 12:45:30;;;;;;;2.05;0.40;;;14.30;99.90;;;;;;5047475;28;20044;-64
2023/10/30 12:47:56;;;;;;;1.10;0.50;;;14.30;99.90;;;;;;5044747;28;20464;-62
2023/10/30 12:50:23;;;;;;;1.02;0.60;;;14.30;99.90;;;;;;5043760;28;20041;-63
2023/10/30 12:52:48;;;;;;;1.55;0.65;;;14.20;99.90;;;;;;5045300;28;20040;-64
2023/10/30 12:55:14;;;;;;;;;;;14.20;99.90;;;;;;5045405;28;20268;-62
2023/10/30 12:57:42;;;;;;;0.65;0.30;;;14.10;99.90;;;;;;5044076;28;20011;-63
2023/10/30 13:00:10;;;;;;;1.05;0.45;;;14.10;99.90;;;;;;5047375;28;20048;-64
2023/10/30 13:02:35;;;;;;;1.33;0.38;;;14.10;99.90;;;;;;5044876;28;20191;-63
2023/10/30 13:05:01;;;;;;;;;;;14.00;99.90;;;;;;5045256;28;20580;-63
2023/10/30 13:07:26;;;;;;;0.80;0.50;;;14.00;99.90;;;;;;5045592;28;19920;-64